sensor_id;sensor_type;location;lat;lon;timestamp;pressure;altitude;pressure_sealevel;temperature;humidity
80393;BME280;69719;45.544;10.218;2023-06-01T00:01:59;100108.53;;;21.47;55.61
80393;BME280;69719;45.544;10.218;2023-06-01T00:04:25;100110.81;;;21.59;55.41
80393;BME280;69719;45.544;10.218;2023-06-01T00:06:50;100106.59;;;21.58;54.96
80393;BME280;69719;45.544;10.218;2023-06-01T00:09:16;100112.66;;;21.58;54.76
80393;BME280;69719;45.544;10.218;2023-06-01T00:11:42;100110.84;;;21.53;55.14
80393;BME280;69719;45.544;10.218;2023-06-01T00:14:08;100104.09;;;21.42;55.24
80393;BME280;69719;45.544;10.218;2023-06-01T00:16:33;100109.28;;;21.52;55.24
80393;BME280;69719;45.544;10.218;2023-06-01T00:18:59;100101.19;;;21.44;55.50
80393;BME280;69719;45.544;10.218;2023-06-01T00:21:27;100102.47;;;21.46;55.30
80393;BME280;69719;45.544;10.218;2023-06-01T00:23:53;100104.00;;;21.24;56.16
80393;BME280;69719;45.544;10.218;2023-06-01T00:26:19;100104.09;;;21.14;56.48
80393;BME280;69719;45.544;10.218;2023-06-01T00:28:44;100102.97;;;21.20;56.41
80393;BME280;69719;45.544;10.218;2023-06-01T00:31:10;100107.47;;;21.19;56.31
80393;BME280;69719;45.544;10.218;2023-06-01T00:33:35;100097.69;;;21.20;56.33
80393;BME280;69719;45.544;10.218;2023-06-01T00:36:01;100093.41;;;21.24;56.27
80393;BME280;69719;45.544;10.218;2023-06-01T00:38:26;100095.09;;;21.15;56.69
80393;BME280;69719;45.544;10.218;2023-06-01T00:40:52;100091.84;;;21.23;56.47
80393;BME280;69719;45.544;10.218;2023-06-01T00:43:18;100093.41;;;21.24;56.27
80393;BME280;69719;45.544;10.218;2023-06-01T00:45:44;100099.34;;;21.11;56.78
80393;BME280;69719;45.544;10.218;2023-06-01T00:48:11;100091.09;;;21.17;56.62
80393;BME280;69719;45.544;10.218;2023-06-01T00:50:36;100098.81;;;21.14;56.71
80393;BME280;69719;45.544;10.218;2023-06-01T00:53:05;100100.00;;;20.98;57.16
80393;BME280;69719;45.544;10.218;2023-06-01T00:55:32;100098.34;;;21.07;56.89
80393;BME280;69719;45.544;10.218;2023-06-01T00:57:59;100093.09;;;20.97;57.09
80393;BME280;69719;45.544;10.218;2023-06-01T01:00:26;100087.44;;;20.74;57.92
80393;BME280;69719;45.544;10.218;2023-06-01T01:02:52;100092.81;;;20.64;58.39
80393;BME280;69719;45.544;10.218;2023-06-01T01:05:18;100085.09;;;20.73;57.97
80393;BME280;69719;45.544;10.218;2023-06-01T01:07:51;100086.47;;;20.65;58.33
80393;BME280;69719;45.544;10.218;2023-06-01T01:10:25;100091.50;;;20.62;58.64
80393;BME280;69719;45.544;10.218;2023-06-01T01:13:11;100091.56;;;20.57;58.98
80393;BME280;69719;45.544;10.218;2023-06-01T01:18:33;100090.19;;;20.59;58.92
80393;BME280;69719;45.544;10.218;2023-06-01T01:21:02;100083.56;;;20.67;58.68
80393;BME280;69719;45.544;10.218;2023-06-01T01:23:48;100085.69;;;20.65;58.69
80393;BME280;69719;45.544;10.218;2023-06-01T01:26:56;100083.84;;;20.60;58.95
80393;BME280;69719;45.544;10.218;2023-06-01T01:29:30;100087.34;;;20.51;59.08
80393;BME280;69719;45.544;10.218;2023-06-01T01:31:59;100083.13;;;20.55;59.09
80393;BME280;69719;45.544;10.218;2023-06-01T01:34:27;100093.22;;;20.43;59.62
80393;BME280;69719;45.544;10.218;2023-06-01T01:36:54;100084.13;;;20.59;59.17
80393;BME280;69719;45.544;10.218;2023-06-01T01:39:20;100087.09;;;20.52;59.03
80393;BME280;69719;45.544;10.218;2023-06-01T01:41:45;100084.44;;;20.52;58.92
80393;BME280;69719;45.544;10.218;2023-06-01T01:44:11;100084.47;;;20.47;58.60
80393;BME280;69719;45.544;10.218;2023-06-01T01:49:59;100083.53;;;20.28;59.23
80393;BME280;69719;45.544;10.218;2023-06-01T01:52:37;100084.34;;;20.24;59.47
80393;BME280;69719;45.544;10.218;2023-06-01T01:55:05;100076.22;;;20.00;60.34
80393;BME280;69719;45.544;10.218;2023-06-01T01:57:32;100074.59;;;20.14;60.11
80393;BME280;69719;45.544;10.218;2023-06-01T02:00:00;100073.06;;;19.98;60.49
80393;BME280;69719;45.544;10.218;2023-06-01T02:02:26;100078.28;;;20.13;60.05
80393;BME280;69719;45.544;10.218;2023-06-01T02:04:51;100074.09;;;20.02;60.56
80393;BME280;69719;45.544;10.218;2023-06-01T02:07:17;100068.81;;;20.07;60.64
80393;BME280;69719;45.544;10.218;2023-06-01T02:09:42;100069.38;;;19.99;60.88
80393;BME280;69719;45.544;10.218;2023-06-01T02:12:08;100063.84;;;19.95;61.01
80393;BME280;69719;45.544;10.218;2023-06-01T02:14:34;100059.88;;;19.98;60.88
80393;BME280;69719;45.544;10.218;2023-06-01T02:16:59;100073.59;;;20.00;60.85
80393;BME280;69719;45.544;10.218;2023-06-01T02:19:29;100066.75;;;19.89;61.20
80393;BME280;69719;45.544;10.218;2023-06-01T02:21:54;100062.63;;;19.73;61.76
80393;BME280;69719;45.544;10.218;2023-06-01T02:24:20;100066.75;;;19.89;61.38
80393;BME280;69719;45.544;10.218;2023-06-01T02:26:46;100063.38;;;19.83;61.34
80393;BME280;69719;45.544;10.218;2023-06-01T02:29:13;100063.13;;;19.80;61.64
80393;BME280;69719;45.544;10.218;2023-06-01T02:31:39;100060.50;;;19.75;61.71
80393;BME280;69719;45.544;10.218;2023-06-01T02:34:05;100057.84;;;19.75;61.55
80393;BME280;69719;45.544;10.218;2023-06-01T02:36:31;100059.97;;;19.73;61.71
80393;BME280;69719;45.544;10.218;2023-06-01T02:38:57;100065.19;;;19.88;61.21
80393;BME280;69719;45.544;10.218;2023-06-01T02:41:24;100068.34;;;19.95;60.83
80393;BME280;69719;45.544;10.218;2023-06-01T02:43:50;100065.41;;;20.02;60.61
80393;BME280;69719;45.544;10.218;2023-06-01T02:46:16;100066.47;;;19.95;60.86
80393;BME280;69719;45.544;10.218;2023-06-01T02:48:43;100070.47;;;19.88;60.99
80393;BME280;69719;45.544;10.218;2023-06-01T02:51:08;100070.47;;;19.88;61.06
80393;BME280;69719;45.544;10.218;2023-06-01T02:53:34;100062.06;;;19.81;61.32
80393;BME280;69719;45.544;10.218;2023-06-01T02:55:59;100075.53;;;19.79;61.38
80393;BME280;69719;45.544;10.218;2023-06-01T02:58:25;100071.53;;;19.87;60.70
80393;BME280;69719;45.544;10.218;2023-06-01T03:00:50;100071.53;;;19.92;60.47
80393;BME280;69719;45.544;10.218;2023-06-01T03:03:16;100066.25;;;19.92;60.37
80393;BME280;69719;45.544;10.218;2023-06-01T03:05:42;100064.97;;;19.79;60.84
80393;BME280;69719;45.544;10.218;2023-06-01T03:08:09;100065.44;;;19.91;60.34
80393;BME280;69719;45.544;10.218;2023-06-01T03:10:35;100065.72;;;19.90;60.35
80393;BME280;69719;45.544;10.218;2023-06-01T03:13:00;100063.88;;;19.90;60.44
80393;BME280;69719;45.544;10.218;2023-06-01T03:15:26;100064.13;;;19.89;60.66
80393;BME280;69719;45.544;10.218;2023-06-01T03:17:54;100063.13;;;19.75;61.22
80393;BME280;69719;45.544;10.218;2023-06-01T03:20:20;100063.69;;;19.67;61.61
80393;BME280;69719;45.544;10.218;2023-06-01T03:22:46;100065.81;;;19.65;61.96
80393;BME280;69719;45.544;10.218;2023-06-01T03:25:12;100053.38;;;19.65;61.83
80393;BME280;69719;45.544;10.218;2023-06-01T03:27:39;100057.94;;;19.50;62.52
80393;BME280;69719;45.544;10.218;2023-06-01T03:30:05;100058.75;;;19.40;62.71
80393;BME280;69719;45.544;10.218;2023-06-01T03:32:39;100060.06;;;19.48;62.63
80393;BME280;69719;45.544;10.218;2023-06-01T03:35:05;100061.06;;;19.57;62.24
80393;BME280;69719;45.544;10.218;2023-06-01T03:37:35;100057.66;;;19.56;62.09
80393;BME280;69719;45.544;10.218;2023-06-01T03:40:01;100065.88;;;19.45;62.37
80393;BME280;69719;45.544;10.218;2023-06-01T03:42:27;100063.50;;;19.43;62.41
80393;BME280;69719;45.544;10.218;2023-06-01T03:44:52;100065.81;;;19.55;61.99
80393;BME280;69719;45.544;10.218;2023-06-01T03:47:18;100065.88;;;19.45;62.45
80393;BME280;69719;45.544;10.218;2023-06-01T03:49:43;100070.53;;;19.68;61.61
80393;BME280;69719;45.544;10.218;2023-06-01T03:52:09;100077.13;;;19.75;61.38
80393;BME280;69719;45.544;10.218;2023-06-01T03:54:35;100067.16;;;19.62;61.98
80393;BME280;69719;45.544;10.218;2023-06-01T03:57:01;100072.66;;;19.66;61.83
80393;BME280;69719;45.544;10.218;2023-06-01T03:59:26;100070.59;;;19.58;62.09
80393;BME280;69719;45.544;10.218;2023-06-01T04:01:52;100073.22;;;19.63;61.78
80393;BME280;69719;45.544;10.218;2023-06-01T04:04:22;100075.88;;;19.58;62.01
80393;BME280;69719;45.544;10.218;2023-06-01T04:06:52;100065.34;;;19.48;62.24
80393;BME280;69719;45.544;10.218;2023-06-01T04:09:18;100062.69;;;19.38;62.58
80393;BME280;69719;45.544;10.218;2023-06-01T04:11:44;100062.19;;;19.41;62.55
80393;BME280;69719;45.544;10.218;2023-06-01T04:14:09;100060.06;;;19.27;63.00
80393;BME280;69719;45.544;10.218;2023-06-01T04:16:35;100060.34;;;19.36;62.71
80393;BME280;69719;45.544;10.218;2023-06-01T04:19:00;100060.63;;;19.35;62.89
80393;BME280;69719;45.544;10.218;2023-06-01T04:21:26;100067.47;;;19.46;62.44
80393;BME280;69719;45.544;10.218;2023-06-01T04:23:52;100064.03;;;19.50;61.97
80393;BME280;69719;45.544;10.218;2023-06-01T04:26:17;100057.38;;;19.63;61.43
80393;BME280;69719;45.544;10.218;2023-06-01T04:28:45;100060.81;;;19.58;61.97
80393;BME280;69719;45.544;10.218;2023-06-01T04:31:12;100053.66;;;19.69;61.56
80393;BME280;69719;45.544;10.218;2023-06-01T04:33:46;100064.00;;;19.55;62.04
80393;BME280;69719;45.544;10.218;2023-06-01T04:36:19;100062.94;;;19.56;62.19
80393;BME280;69719;45.544;10.218;2023-06-01T04:38:50;100059.50;;;19.56;62.26
80393;BME280;69719;45.544;10.218;2023-06-01T04:41:22;100054.78;;;19.48;62.59
80393;BME280;69719;45.544;10.218;2023-06-01T04:43:49;100057.91;;;19.55;62.33
80393;BME280;69719;45.544;10.218;2023-06-01T04:46:22;100057.44;;;19.43;62.77
80393;BME280;69719;45.544;10.218;2023-06-01T04:48:50;100060.03;;;19.58;62.24
80393;BME280;69719;45.544;10.218;2023-06-01T04:51:27;100057.38;;;19.63;62.16
80393;BME280;69719;45.544;10.218;2023-06-01T04:53:54;100059.25;;;19.52;62.85
80393;BME280;69719;45.544;10.218;2023-06-01T04:56:24;100060.56;;;19.55;62.63
80393;BME280;69719;45.544;10.218;2023-06-01T04:58:53;100056.34;;;19.59;62.50
80393;BME280;69719;45.544;10.218;2023-06-01T05:01:21;100044.69;;;19.65;62.11
80393;BME280;69719;45.544;10.218;2023-06-01T05:03:50;100058.41;;;19.67;61.92
80393;BME280;69719;45.544;10.218;2023-06-01T05:06:17;100055.75;;;19.72;61.80
80393;BME280;69719;45.544;10.218;2023-06-01T05:08:44;100063.09;;;19.85;61.81
80393;BME280;69719;45.544;10.218;2023-06-01T05:11:10;100059.91;;;19.93;61.30
80393;BME280;69719;45.544;10.218;2023-06-01T05:13:37;100056.47;;;19.92;61.29
80393;BME280;69719;45.544;10.218;2023-06-01T05:16:03;100065.66;;;20.05;61.01
80393;BME280;69719;45.544;10.218;2023-06-01T05:18:29;100060.88;;;20.12;60.76
80393;BME280;69719;45.544;10.218;2023-06-01T05:20:55;100058.25;;;20.07;61.07
80393;BME280;69719;45.544;10.218;2023-06-01T05:23:21;100055.16;;;19.85;61.82
80393;BME280;69719;45.544;10.218;2023-06-01T05:25:46;100060.72;;;19.88;61.78
80393;BME280;69719;45.544;10.218;2023-06-01T05:28:12;100052.78;;;19.88;61.81
80393;BME280;69719;45.544;10.218;2023-06-01T05:30:37;100052.22;;;20.02;61.44
80393;BME280;69719;45.544;10.218;2023-06-01T05:33:03;100066.44;;;20.06;61.62
80393;BME280;69719;45.544;10.218;2023-06-01T05:35:29;100058.75;;;20.14;61.25
80393;BME280;69719;45.544;10.218;2023-06-01T05:37:54;100059.78;;;20.13;61.09
80393;BME280;69719;45.544;10.218;2023-06-01T05:40:20;100055.28;;;20.19;60.77
80393;BME280;69719;45.544;10.218;2023-06-01T05:42:46;100057.69;;;20.20;60.50
80393;BME280;69719;45.544;10.218;2023-06-01T05:45:11;100060.81;;;20.27;60.42
80393;BME280;69719;45.544;10.218;2023-06-01T05:47:37;100054.66;;;20.37;60.07
80393;BME280;69719;45.544;10.218;2023-06-01T05:50:02;100054.94;;;20.35;60.23
80393;BME280;69719;45.544;10.218;2023-06-01T05:52:28;100063.69;;;20.31;60.29
80393;BME280;69719;45.544;10.218;2023-06-01T05:54:53;100050.19;;;20.37;60.07
80393;BME280;69719;45.544;10.218;2023-06-01T05:57:20;100057.53;;;20.40;59.82
80393;BME280;69719;45.544;10.218;2023-06-01T05:59:45;100055.47;;;20.37;59.62
80393;BME280;69719;45.544;10.218;2023-06-01T06:02:12;100050.63;;;20.49;59.17
80393;BME280;69719;45.544;10.218;2023-06-01T06:04:38;100054.25;;;20.58;58.96
80393;BME280;69719;45.544;10.218;2023-06-01T06:07:04;100047.78;;;20.74;58.64
80393;BME280;69719;45.544;10.218;2023-06-01T06:09:30;100054.56;;;20.86;58.50
80393;BME280;69719;45.544;10.218;2023-06-01T06:11:55;100049.84;;;20.83;58.28
80393;BME280;69719;45.544;10.218;2023-06-01T06:14:21;100044.78;;;20.86;58.25
80393;BME280;69719;45.544;10.218;2023-06-01T06:16:46;100054.22;;;20.97;57.92
80393;BME280;69719;45.544;10.218;2023-06-01T06:19:12;100055.69;;;21.13;57.64
80393;BME280;69719;45.544;10.218;2023-06-01T06:21:37;100050.63;;;21.17;57.97
80393;BME280;69719;45.544;10.218;2023-06-01T06:24:03;100059.44;;;21.36;57.81
80393;BME280;69719;45.544;10.218;2023-06-01T06:26:29;100053.28;;;21.64;56.90
80393;BME280;69719;45.544;10.218;2023-06-01T06:28:54;100068.56;;;21.72;56.93
80393;BME280;69719;45.544;10.218;2023-06-01T06:31:20;100054.03;;;21.93;55.39
80393;BME280;69719;45.544;10.218;2023-06-01T06:33:46;100060.78;;;22.04;54.83
80393;BME280;69719;45.544;10.218;2023-06-01T06:36:12;100068.59;;;22.14;54.92
80393;BME280;69719;45.544;10.218;2023-06-01T06:38:37;100068.09;;;22.12;55.25
80393;BME280;69719;45.544;10.218;2023-06-01T06:41:03;100062.00;;;22.31;54.36
80393;BME280;69719;45.544;10.218;2023-06-01T06:43:29;100062.72;;;22.36;54.48
80393;BME280;69719;45.544;10.218;2023-06-01T06:45:54;100061.88;;;22.41;53.92
80393;BME280;69719;45.544;10.218;2023-06-01T06:48:20;100065.16;;;22.51;52.68
80393;BME280;69719;45.544;10.218;2023-06-01T06:50:46;100060.34;;;22.72;52.09
80393;BME280;69719;45.544;10.218;2023-06-01T06:53:11;100053.22;;;22.86;52.04
80393;BME280;69719;45.544;10.218;2023-06-01T06:55:37;100054.28;;;23.17;50.36
80393;BME280;69719;45.544;10.218;2023-06-01T06:58:02;100067.81;;;23.34;50.03
80393;BME280;69719;45.544;10.218;2023-06-01T07:00:28;100061.50;;;23.85;48.75
80393;BME280;69719;45.544;10.218;2023-06-01T07:02:56;100053.72;;;23.88;48.26
80393;BME280;69719;45.544;10.218;2023-06-01T07:05:21;100056.94;;;24.12;47.58
80393;BME280;69719;45.544;10.218;2023-06-01T07:07:47;100051.84;;;24.16;48.00
80393;BME280;69719;45.544;10.218;2023-06-01T07:10:12;100054.78;;;24.01;46.69
80393;BME280;69719;45.544;10.218;2023-06-01T07:12:41;100056.59;;;24.05;47.18
80393;BME280;69719;45.544;10.218;2023-06-01T07:15:07;100051.63;;;24.12;47.09
80393;BME280;69719;45.544;10.218;2023-06-01T07:17:33;100060.47;;;24.21;44.04
80393;BME280;69719;45.544;10.218;2023-06-01T07:20:00;100054.94;;;24.31;43.67
80393;BME280;69719;45.544;10.218;2023-06-01T07:22:26;100057.75;;;24.48;43.70
80393;BME280;69719;45.544;10.218;2023-06-01T07:24:51;100059.97;;;24.55;43.29
80393;BME280;69719;45.544;10.218;2023-06-01T07:27:17;100059.53;;;24.62;45.62
80393;BME280;69719;45.544;10.218;2023-06-01T07:29:43;100052.81;;;24.78;43.28
80393;BME280;69719;45.544;10.218;2023-06-01T07:32:09;100054.47;;;24.74;42.74
80393;BME280;69719;45.544;10.218;2023-06-01T07:34:35;100055.03;;;24.84;43.35
80393;BME280;69719;45.544;10.218;2023-06-01T07:37:01;100044.25;;;24.89;43.42
80393;BME280;69719;45.544;10.218;2023-06-01T07:39:26;100049.31;;;24.55;43.77
80393;BME280;69719;45.544;10.218;2023-06-01T07:41:52;100049.94;;;24.96;43.64
80393;BME280;69719;45.544;10.218;2023-06-01T07:44:20;100053.63;;;24.65;43.63
80393;BME280;69719;45.544;10.218;2023-06-01T07:46:46;100052.97;;;24.81;45.02
80393;BME280;69719;45.544;10.218;2023-06-01T07:49:12;100052.16;;;25.03;44.98
80393;BME280;69719;45.544;10.218;2023-06-01T07:51:40;100047.41;;;25.22;43.65
80393;BME280;69719;45.544;10.218;2023-06-01T07:54:07;100039.38;;;25.13;44.86
80393;BME280;69719;45.544;10.218;2023-06-01T07:56:33;100043.91;;;25.13;43.33
80393;BME280;69719;45.544;10.218;2023-06-01T07:58:59;100048.72;;;25.02;44.42
80393;BME280;69719;45.544;10.218;2023-06-01T08:01:25;100032.25;;;25.31;43.78
80393;BME280;69719;45.544;10.218;2023-06-01T08:03:51;100026.00;;;25.36;42.85
80393;BME280;69719;45.544;10.218;2023-06-01T08:06:17;100028.94;;;25.65;44.11
80393;BME280;69719;45.544;10.218;2023-06-01T08:08:43;100029.34;;;25.50;42.86
80393;BME280;69719;45.544;10.218;2023-06-01T08:11:08;100029.06;;;25.51;43.60
80393;BME280;69719;45.544;10.218;2023-06-01T08:13:35;100024.69;;;25.55;43.34
80393;BME280;69719;45.544;10.218;2023-06-01T08:16:02;100020.03;;;25.78;42.15
80393;BME280;69719;45.544;10.218;2023-06-01T08:18:29;100025.84;;;25.97;42.79
80393;BME280;69719;45.544;10.218;2023-06-01T08:20:54;100020.19;;;26.07;43.29
80393;BME280;69719;45.544;10.218;2023-06-01T08:23:21;99998.34;;;25.62;43.00
80393;BME280;69719;45.544;10.218;2023-06-01T08:25:48;100018.47;;;25.77;44.05
80393;BME280;69719;45.544;10.218;2023-06-01T08:28:13;100016.72;;;25.72;44.35
80393;BME280;69719;45.544;10.218;2023-06-01T08:30:39;100022.09;;;26.07;43.44
80393;BME280;69719;45.544;10.218;2023-06-01T08:33:04;100015.06;;;26.19;42.65
80393;BME280;69719;45.544;10.218;2023-06-01T08:35:30;100019.47;;;26.24;40.34
80393;BME280;69719;45.544;10.218;2023-06-01T08:38:00;100013.97;;;26.37;42.91
80393;BME280;69719;45.544;10.218;2023-06-01T08:40:25;100016.63;;;26.20;40.13
80393;BME280;69719;45.544;10.218;2023-06-01T08:45:23;100012.41;;;26.19;41.58
80393;BME280;69719;45.544;10.218;2023-06-01T08:47:52;100014.28;;;26.44;41.24
80393;BME280;69719;45.544;10.218;2023-06-01T08:50:18;100011.25;;;26.63;40.14
80393;BME280;69719;45.544;10.218;2023-06-01T08:52:46;100006.09;;;26.58;42.25
80393;BME280;69719;45.544;10.218;2023-06-01T08:55:13;100001.72;;;26.53;41.39
80393;BME280;69719;45.544;10.218;2023-06-01T08:57:42;100005.00;;;26.33;39.03
80393;BME280;69719;45.544;10.218;2023-06-01T09:00:12;99998.06;;;26.66;42.14
80393;BME280;69719;45.544;10.218;2023-06-01T09:02:38;99999.97;;;26.49;41.10
80393;BME280;69719;45.544;10.218;2023-06-01T09:05:05;100002.44;;;26.62;38.79
80393;BME280;69719;45.544;10.218;2023-06-01T09:07:31;99997.13;;;26.54;39.24
80393;BME280;69719;45.544;10.218;2023-06-01T09:09:57;100002.63;;;26.74;38.70
80393;BME280;69719;45.544;10.218;2023-06-01T09:12:24;99995.09;;;26.59;39.66
80393;BME280;69719;45.544;10.218;2023-06-01T09:15:10;99988.31;;;26.70;40.10
80393;BME280;69719;45.544;10.218;2023-06-01T09:17:37;99991.97;;;27.12;39.46
80393;BME280;69719;45.544;10.218;2023-06-01T09:20:03;99992.28;;;26.73;39.00
80393;BME280;69719;45.544;10.218;2023-06-01T09:25:05;99986.84;;;26.99;38.13
80393;BME280;69719;45.544;10.218;2023-06-01T09:27:45;99990.91;;;27.05;37.74
80393;BME280;69719;45.544;10.218;2023-06-01T09:30:11;99992.34;;;27.31;36.30
80393;BME280;69719;45.544;10.218;2023-06-01T09:32:37;99990.94;;;27.34;38.02
80393;BME280;69719;45.544;10.218;2023-06-01T09:35:03;99983.41;;;27.36;37.22
80393;BME280;69719;45.544;10.218;2023-06-01T09:37:32;99984.78;;;27.42;37.76
80393;BME280;69719;45.544;10.218;2023-06-01T09:39:58;99982.59;;;27.35;37.74
80393;BME280;69719;45.544;10.218;2023-06-01T09:42:42;99982.06;;;27.13;40.14
80393;BME280;69719;45.544;10.218;2023-06-01T09:45:21;99985.38;;;27.10;37.79
80393;BME280;69719;45.544;10.218;2023-06-01T09:47:48;99979.53;;;27.16;35.88
80393;BME280;69719;45.544;10.218;2023-06-01T09:50:36;99978.94;;;27.11;36.96
80393;BME280;69719;45.544;10.218;2023-06-01T09:53:03;99969.81;;;27.12;38.26
80393;BME280;69719;45.544;10.218;2023-06-01T09:55:30;99971.81;;;27.23;37.60
80393;BME280;69719;45.544;10.218;2023-06-01T09:58:21;99968.50;;;26.89;39.67
80393;BME280;69719;45.544;10.218;2023-06-01T10:00:49;99961.06;;;27.03;39.62
80393;BME280;69719;45.544;10.218;2023-06-01T10:03:15;99969.41;;;27.39;39.19
80393;BME280;69719;45.544;10.218;2023-06-01T10:05:45;99967.72;;;27.55;38.39
80393;BME280;69719;45.544;10.218;2023-06-01T10:08:12;99958.28;;;27.78;37.68
80393;BME280;69719;45.544;10.218;2023-06-01T10:10:38;99960.81;;;27.54;36.37
80393;BME280;69719;45.544;10.218;2023-06-01T10:13:05;99960.03;;;27.54;36.71
80393;BME280;69719;45.544;10.218;2023-06-01T10:15:32;99954.06;;;27.48;39.60
80393;BME280;69719;45.544;10.218;2023-06-01T10:17:58;99944.25;;;27.02;37.36
80393;BME280;69719;45.544;10.218;2023-06-01T10:20:24;99927.09;;;27.03;37.76
80393;BME280;69719;45.544;10.218;2023-06-01T10:22:50;99952.47;;;27.76;36.85
80393;BME280;69719;45.544;10.218;2023-06-01T10:25:17;99951.09;;;27.70;36.37
80393;BME280;69719;45.544;10.218;2023-06-01T10:27:56;99944.91;;;27.78;37.70
80393;BME280;69719;45.544;10.218;2023-06-01T10:30:23;99949.53;;;28.10;36.06
80393;BME280;69719;45.544;10.218;2023-06-01T10:32:48;99946.97;;;27.93;35.73
80393;BME280;69719;45.544;10.218;2023-06-01T10:40:41;99940.47;;;27.32;38.63
80393;BME280;69719;45.544;10.218;2023-06-01T10:43:12;99947.44;;;27.25;36.45
80393;BME280;69719;45.544;10.218;2023-06-01T10:45:53;99945.34;;;27.39;38.20
80393;BME280;69719;45.544;10.218;2023-06-01T10:48:51;99940.03;;;27.30;36.90
80393;BME280;69719;45.544;10.218;2023-06-01T10:51:22;99936.22;;;27.40;37.61
80393;BME280;69719;45.544;10.218;2023-06-01T10:53:49;99932.06;;;27.22;38.75
80393;BME280;69719;45.544;10.218;2023-06-01T10:56:26;99931.59;;;27.49;38.28
80393;BME280;69719;45.544;10.218;2023-06-01T10:59:12;99936.38;;;27.64;37.49
80393;BME280;69719;45.544;10.218;2023-06-01T11:01:43;99932.44;;;27.62;37.51
80393;BME280;69719;45.544;10.218;2023-06-01T11:04:09;99924.81;;;27.52;35.90
80393;BME280;69719;45.544;10.218;2023-06-01T11:06:37;99921.63;;;27.58;37.37
80393;BME280;69719;45.544;10.218;2023-06-01T11:09:09;99915.28;;;27.42;36.70
80393;BME280;69719;45.544;10.218;2023-06-01T11:14:14;99917.78;;;27.68;38.09
80393;BME280;69719;45.544;10.218;2023-06-01T11:16:41;99917.91;;;27.71;36.56
80393;BME280;69719;45.544;10.218;2023-06-01T11:19:07;99923.00;;;27.64;37.50
80393;BME280;69719;45.544;10.218;2023-06-01T11:21:41;99915.28;;;27.42;38.64
80393;BME280;69719;45.544;10.218;2023-06-01T11:24:15;99923.50;;;27.37;37.38
80393;BME280;69719;45.544;10.218;2023-06-01T11:26:45;99927.81;;;27.21;37.97
80393;BME280;69719;45.544;10.218;2023-06-01T11:29:18;99923.75;;;27.44;37.77
80393;BME280;69719;45.544;10.218;2023-06-01T11:31:46;99918.97;;;27.58;38.59
80393;BME280;69719;45.544;10.218;2023-06-01T11:34:13;99917.84;;;27.30;38.26
80393;BME280;69719;45.544;10.218;2023-06-01T11:36:47;99911.25;;;27.36;37.99
80393;BME280;69719;45.544;10.218;2023-06-01T11:41:42;99910.22;;;27.49;38.56
80393;BME280;69719;45.544;10.218;2023-06-01T11:44:09;99908.00;;;27.22;37.87
80393;BME280;69719;45.544;10.218;2023-06-01T11:46:35;99910.03;;;27.25;39.24
80393;BME280;69719;45.544;10.218;2023-06-01T11:49:04;99906.63;;;27.45;38.30
80393;BME280;69719;45.544;10.218;2023-06-01T11:51:31;99907.47;;;27.58;37.17
80393;BME280;69719;45.544;10.218;2023-06-01T11:54:00;99905.91;;;27.36;37.86
80393;BME280;69719;45.544;10.218;2023-06-01T11:56:34;99895.47;;;27.43;38.25
80393;BME280;69719;45.544;10.218;2023-06-01T11:59:04;99900.56;;;27.36;37.55
80393;BME280;69719;45.544;10.218;2023-06-01T12:01:34;99893.72;;;27.68;36.54
80393;BME280;69719;45.544;10.218;2023-06-01T12:04:02;99892.19;;;27.79;38.13
80393;BME280;69719;45.544;10.218;2023-06-01T12:06:28;99886.41;;;27.77;38.40
80393;BME280;69719;45.544;10.218;2023-06-01T12:08:55;99885.16;;;27.74;37.53
80393;BME280;69719;45.544;10.218;2023-06-01T12:11:24;99890.06;;;27.72;37.84
80393;BME280;69719;45.544;10.218;2023-06-01T12:13:55;99890.28;;;27.67;36.33
80393;BME280;69719;45.544;10.218;2023-06-01T12:16:21;99889.16;;;27.68;36.32
80393;BME280;69719;45.544;10.218;2023-06-01T12:18:47;99885.16;;;27.74;36.33
80393;BME280;69719;45.544;10.218;2023-06-01T12:21:13;99882.75;;;27.81;36.47
80393;BME280;69719;45.544;10.218;2023-06-01T12:23:40;99877.78;;;27.92;37.68
80393;BME280;69719;45.544;10.218;2023-06-01T12:26:07;99874.22;;;28.20;36.85
80393;BME280;69719;45.544;10.218;2023-06-01T12:31:16;99868.22;;;28.36;36.20
80393;BME280;69719;45.544;10.218;2023-06-01T12:33:43;99862.19;;;28.39;35.39
80393;BME280;69719;45.544;10.218;2023-06-01T12:36:31;99841.91;;;28.50;36.60
80393;BME280;69719;45.544;10.218;2023-06-01T12:38:57;99854.69;;;28.20;35.94
80393;BME280;69719;45.544;10.218;2023-06-01T12:41:27;99856.44;;;28.04;35.86
80393;BME280;69719;45.544;10.218;2023-06-01T12:43:54;99841.69;;;28.43;35.31
80393;BME280;69719;45.544;10.218;2023-06-01T12:46:22;99837.34;;;28.50;34.95
80393;BME280;69719;45.544;10.218;2023-06-01T12:48:48;99832.34;;;28.61;34.83
80393;BME280;69719;45.544;10.218;2023-06-01T12:51:14;99830.63;;;28.32;35.63
80393;BME280;69719;45.544;10.218;2023-06-01T12:53:40;99838.28;;;28.09;36.17
80393;BME280;69719;45.544;10.218;2023-06-01T12:56:07;99833.53;;;27.94;36.05
80393;BME280;69719;45.544;10.218;2023-06-01T12:58:33;99826.84;;;27.68;37.28
80393;BME280;69719;45.544;10.218;2023-06-01T13:00:59;99823.13;;;28.13;36.10
80393;BME280;69719;45.544;10.218;2023-06-01T13:03:25;99819.31;;;28.14;36.63
80393;BME280;69719;45.544;10.218;2023-06-01T13:05:51;99825.25;;;27.87;36.89
80393;BME280;69719;45.544;10.218;2023-06-01T13:08:17;99812.09;;;27.82;37.34
80393;BME280;69719;45.544;10.218;2023-06-01T13:10:43;99816.53;;;27.78;37.08